Terminal Aerodrome Forecast
Issued by NWS Cleveland, OH

Home | Current Version | Previous Version | Graphics & Text | Print | Product List | Glossary On
Versions: 1 2 3 4 5 6 7 8 9 10 11 12 13 14 15
000
FTUS41 KCLE 221700
TAFTOL
TAF
KTOL 221737Z 2218/2318 25020G28KT P6SM SCT035 OVC045
     FM230000 26012KT P6SM BKN035
     FM231400 29015G22KT P6SM BKN035 OVC045=

USA.gov is the U.S. government's official web portal to all federal, state and local government web resources and services.